Skip Navigation Links
NOAA logo - Click to go to the NOAA homepage
NOAA's National Weather Service
Alaska Aviation Weather Unit
  NWS logo - Click to go to the NWS homepage
Left Navbar Graphic     21 AKDT = 05 GMT

   
NOAA is celebrating 200 years of science, service, and stewardship. Visit the NOAA 200th celebration Web site to learn more.
USA.gov is the U.S. Government's official Web portal to all Federal, state and local government Web resources and services.
Facebook
NWS on Facebook

AAWU Home :: Display TAF Add Bookmark
METAR PAMK 262356Z AUTO 36004KT 10SM SCT028 BKN036 OVC055 08/02 A2956
     RMK AO2 RAE2259 SLP014 P0000 60000 T00780017 10083 20028
     51005 $=

METAR PAMK 270156Z AUTO 01006KT 10SM FEW045 SCT050 06/02 A2956 RMK
 AO2 RAE17 SLP014 P0001 T00610017 $=

METAR PAMK 270256Z AUTO 06005KT 10SM SCT065 04/01 A2957 RMK AO2 SLP017
     60001 T00390006 53003 $=

METAR PAMK 270356Z AUTO 00000KT 10SM BKN070 04/01 A2957 RMK AO2 RAB18E34
     SLP018 P0000 T00390006 $=

METAR PAMK 270456Z AUTO 05004KT 10SM SCT065 03/00 A2958 RMK AO2 SLP021
     T00280000 $=


NOAA's National Weather Service
Alaska Aviation Weather Unit
6930 Sand Lake Road
Anchorage, AK 99502-1845
Disclaimer
Credits
Glossary
Privacy Policy
About Us
Career Opportunities
Contact AAWU Internet Services Site last modified: April, 17th 2012